Myronivka, Ukraine
Current Conditions -  °F | °C
As of 5:30 PM on Friday 28 Nov 2014 (Local Time) from UKBB Reporting Station
Light Snow Light Snow  
Wind Chill: 19°   Ceiling: 3000
Heat Index: 25°   Visibility: 2.6mi
Dew Point: 23°   Wind: 4mph
Humidity: 93%   Direction: 30°NNE
Pressure: 30.33"   Gusts: NA
Location:  49.65°N, 30.98°E
Report Text: UKBB 281430Z 03002MPS 4300 -SN BR OVC030 M04/M05 Q1027 86521045 36820545 NOSIG
Loading
Personal Weather Stations






























Interactive Weather Map New forecast layout! Learn more

10-Day Weather Forecast

Advertisements
Track Severe Weather on mobile